sensor_id;sensor_type;location;lat;lon;timestamp;pressure;altitude;pressure_sealevel;temperature;humidity
48652;BME280;34442;52.362;-1.302;2023-02-02T00:01:24;101102.47;;;7.66;100.00
48652;BME280;34442;52.362;-1.302;2023-02-02T00:03:51;101102.09;;;7.69;100.00
48652;BME280;34442;52.362;-1.302;2023-02-02T00:06:17;101107.31;;;7.70;100.00
48652;BME280;34442;52.362;-1.302;2023-02-02T00:08:43;101092.41;;;7.68;100.00
48652;BME280;34442;52.362;-1.302;2023-02-02T00:11:09;101097.44;;;7.71;100.00
48652;BME280;34442;52.362;-1.302;2023-02-02T00:13:34;101098.25;;;7.71;100.00
48652;BME280;34442;52.362;-1.302;2023-02-02T00:18:54;101097.63;;;7.69;100.00
48652;BME280;34442;52.362;-1.302;2023-02-02T00:21:21;101094.75;;;7.71;100.00
48652;BME280;34442;52.362;-1.302;2023-02-02T00:23:46;101086.41;;;7.74;100.00
48652;BME280;34442;52.362;-1.302;2023-02-02T00:26:11;101085.91;;;7.70;100.00
48652;BME280;34442;52.362;-1.302;2023-02-02T00:28:37;101092.72;;;7.73;100.00
48652;BME280;34442;52.362;-1.302;2023-02-02T00:31:02;101096.72;;;7.77;100.00
48652;BME280;34442;52.362;-1.302;2023-02-02T00:33:28;101090.91;;;7.82;100.00
48652;BME280;34442;52.362;-1.302;2023-02-02T00:35:53;101090.03;;;7.81;100.00
48652;BME280;34442;52.362;-1.302;2023-02-02T00:38:19;101086.50;;;7.89;100.00
48652;BME280;34442;52.362;-1.302;2023-02-02T00:40:45;101098.53;;;7.93;100.00
48652;BME280;34442;52.362;-1.302;2023-02-02T00:43:10;101088.03;;;7.91;100.00
48652;BME280;34442;52.362;-1.302;2023-02-02T00:45:36;101089.50;;;7.94;100.00
48652;BME280;34442;52.362;-1.302;2023-02-02T00:48:02;101096.88;;;7.92;100.00
48652;BME280;34442;52.362;-1.302;2023-02-02T00:50:27;101097.06;;;7.90;100.00
48652;BME280;34442;52.362;-1.302;2023-02-02T00:52:53;101102.53;;;7.97;100.00
48652;BME280;34442;52.362;-1.302;2023-02-02T00:55:19;101101.53;;;7.98;100.00
48652;BME280;34442;52.362;-1.302;2023-02-02T00:57:45;101104.06;;;8.00;100.00
48652;BME280;34442;52.362;-1.302;2023-02-02T01:00:14;101110.75;;;8.04;100.00
48652;BME280;34442;52.362;-1.302;2023-02-02T01:02:39;101114.44;;;8.03;100.00
48652;BME280;34442;52.362;-1.302;2023-02-02T01:05:05;101126.63;;;8.05;100.00
48652;BME280;34442;52.362;-1.302;2023-02-02T01:07:31;101122.94;;;8.06;100.00
48652;BME280;34442;52.362;-1.302;2023-02-02T01:09:56;101118.06;;;8.10;100.00
48652;BME280;34442;52.362;-1.302;2023-02-02T01:12:22;101124.63;;;8.07;100.00
48652;BME280;34442;52.362;-1.302;2023-02-02T01:14:47;101128.47;;;8.05;100.00
48652;BME280;34442;52.362;-1.302;2023-02-02T01:17:13;101117.56;;;8.06;100.00
48652;BME280;34442;52.362;-1.302;2023-02-02T01:19:38;101113.72;;;8.09;100.00
48652;BME280;34442;52.362;-1.302;2023-02-02T01:22:05;101123.28;;;8.11;100.00
48652;BME280;34442;52.362;-1.302;2023-02-02T01:24:30;101125.25;;;8.17;100.00
48652;BME280;34442;52.362;-1.302;2023-02-02T01:26:56;101116.72;;;8.14;100.00
48652;BME280;34442;52.362;-1.302;2023-02-02T01:29:21;101127.28;;;8.15;100.00
48652;BME280;34442;52.362;-1.302;2023-02-02T01:31:47;101131.44;;;8.18;100.00
48652;BME280;34442;52.362;-1.302;2023-02-02T01:34:13;101133.78;;;8.21;100.00
48652;BME280;34442;52.362;-1.302;2023-02-02T01:36:38;101142.34;;;8.16;100.00
48652;BME280;34442;52.362;-1.302;2023-02-02T01:39:04;101144.81;;;8.18;100.00
48652;BME280;34442;52.362;-1.302;2023-02-02T01:41:29;101145.16;;;8.23;100.00
48652;BME280;34442;52.362;-1.302;2023-02-02T01:44:00;101156.03;;;8.21;100.00
48652;BME280;34442;52.362;-1.302;2023-02-02T01:46:31;101149.84;;;8.21;100.00
48652;BME280;34442;52.362;-1.302;2023-02-02T01:49:08;101154.56;;;8.19;100.00
48652;BME280;34442;52.362;-1.302;2023-02-02T01:54:13;101144.19;;;8.16;100.00
48652;BME280;34442;52.362;-1.302;2023-02-02T01:56:48;101140.66;;;8.15;100.00
48652;BME280;34442;52.362;-1.302;2023-02-02T01:59:16;101142.66;;;8.13;100.00
48652;BME280;34442;52.362;-1.302;2023-02-02T02:01:44;101143.69;;;8.12;100.00
48652;BME280;34442;52.362;-1.302;2023-02-02T02:04:10;101138.00;;;8.07;100.00
48652;BME280;34442;52.362;-1.302;2023-02-02T02:06:37;101135.34;;;8.07;100.00
48652;BME280;34442;52.362;-1.302;2023-02-02T02:09:04;101134.84;;;8.04;100.00
48652;BME280;34442;52.362;-1.302;2023-02-02T02:11:31;101140.69;;;8.07;100.00
48652;BME280;34442;52.362;-1.302;2023-02-02T02:13:59;101134.50;;;8.07;100.00
48652;BME280;34442;52.362;-1.302;2023-02-02T02:29:05;101118.94;;;7.94;100.00
48652;BME280;34442;52.362;-1.302;2023-02-02T02:39:47;101134.72;;;7.72;100.00
48652;BME280;34442;52.362;-1.302;2023-02-02T02:42:19;101124.19;;;7.71;100.00
48652;BME280;34442;52.362;-1.302;2023-02-02T02:44:48;101123.50;;;7.69;100.00
48652;BME280;34442;52.362;-1.302;2023-02-02T02:47:14;101125.72;;;7.65;100.00
48652;BME280;34442;52.362;-1.302;2023-02-02T02:49:45;101134.59;;;7.58;100.00
48652;BME280;34442;52.362;-1.302;2023-02-02T02:52:10;101132.88;;;7.57;100.00
48652;BME280;34442;52.362;-1.302;2023-02-02T02:54:49;101144.94;;;7.53;100.00
48652;BME280;34442;52.362;-1.302;2023-02-02T03:02:55;101149.13;;;7.47;100.00
48652;BME280;34442;52.362;-1.302;2023-02-02T03:08:10;101146.13;;;7.42;100.00
48652;BME280;34442;52.362;-1.302;2023-02-02T03:10:39;101139.94;;;7.50;100.00
48652;BME280;34442;52.362;-1.302;2023-02-02T03:13:10;101139.25;;;7.47;100.00
48652;BME280;34442;52.362;-1.302;2023-02-02T03:15:41;101141.94;;;7.47;100.00
48652;BME280;34442;52.362;-1.302;2023-02-02T03:18:07;101140.59;;;7.43;100.00
48652;BME280;34442;52.362;-1.302;2023-02-02T03:20:33;101134.72;;;7.40;100.00
48652;BME280;34442;52.362;-1.302;2023-02-02T03:22:58;101141.59;;;7.42;100.00
48652;BME280;34442;52.362;-1.302;2023-02-02T03:25:24;101142.25;;;7.44;100.00
48652;BME280;34442;52.362;-1.302;2023-02-02T03:27:49;101137.41;;;7.48;100.00
48652;BME280;34442;52.362;-1.302;2023-02-02T03:30:15;101136.44;;;7.49;100.00
48652;BME280;34442;52.362;-1.302;2023-02-02T03:32:41;101136.75;;;7.46;100.00
48652;BME280;34442;52.362;-1.302;2023-02-02T03:35:07;101127.72;;;7.39;100.00
48652;BME280;34442;52.362;-1.302;2023-02-02T03:37:33;101121.88;;;7.35;100.00
48652;BME280;34442;52.362;-1.302;2023-02-02T03:39:59;101121.22;;;7.33;100.00
48652;BME280;34442;52.362;-1.302;2023-02-02T03:42:24;101130.06;;;7.34;100.00
48652;BME280;34442;52.362;-1.302;2023-02-02T03:44:50;101122.19;;;7.32;100.00
48652;BME280;34442;52.362;-1.302;2023-02-02T03:47:15;101124.41;;;7.29;100.00
48652;BME280;34442;52.362;-1.302;2023-02-02T03:49:41;101117.34;;;7.28;100.00
48652;BME280;34442;52.362;-1.302;2023-02-02T03:52:06;101113.19;;;7.25;100.00
48652;BME280;34442;52.362;-1.302;2023-02-02T03:54:31;101110.50;;;7.25;100.00
48652;BME280;34442;52.362;-1.302;2023-02-02T03:56:57;101097.78;;;7.27;100.00
48652;BME280;34442;52.362;-1.302;2023-02-02T03:59:22;101088.63;;;7.30;100.00
48652;BME280;34442;52.362;-1.302;2023-02-02T04:01:48;101097.78;;;7.27;100.00
48652;BME280;34442;52.362;-1.302;2023-02-02T04:04:13;101096.47;;;7.23;100.00
48652;BME280;34442;52.362;-1.302;2023-02-02T04:06:39;101095.47;;;7.16;100.00
48652;BME280;34442;52.362;-1.302;2023-02-02T04:09:04;101099.47;;;7.20;100.00
48652;BME280;34442;52.362;-1.302;2023-02-02T04:11:30;101103.81;;;7.21;100.00
48652;BME280;34442;52.362;-1.302;2023-02-02T04:13:55;101103.47;;;7.24;100.00
48652;BME280;34442;52.362;-1.302;2023-02-02T04:16:20;101100.16;;;7.22;100.00
48652;BME280;34442;52.362;-1.302;2023-02-02T04:18:46;101094.28;;;7.18;100.00
48652;BME280;34442;52.362;-1.302;2023-02-02T04:21:11;101099.63;;;7.18;100.00
48652;BME280;34442;52.362;-1.302;2023-02-02T04:23:36;101098.81;;;7.10;100.00
48652;BME280;34442;52.362;-1.302;2023-02-02T04:26:02;101089.25;;;7.07;100.00
48652;BME280;34442;52.362;-1.302;2023-02-02T04:28:28;101094.13;;;7.12;100.00
48652;BME280;34442;52.362;-1.302;2023-02-02T04:30:54;101091.47;;;7.12;100.00
48652;BME280;34442;52.362;-1.302;2023-02-02T04:33:21;101095.63;;;7.06;100.00
48652;BME280;34442;52.362;-1.302;2023-02-02T04:35:47;101093.28;;;7.03;100.00
48652;BME280;34442;52.362;-1.302;2023-02-02T04:38:13;101093.78;;;7.07;100.00
48652;BME280;34442;52.362;-1.302;2023-02-02T04:40:39;101095.28;;;7.09;100.00
48652;BME280;34442;52.362;-1.302;2023-02-02T04:43:05;101099.81;;;7.09;100.00
48652;BME280;34442;52.362;-1.302;2023-02-02T04:45:30;101112.84;;;7.12;100.00
48652;BME280;34442;52.362;-1.302;2023-02-02T04:47:56;101111.84;;;7.13;100.00
48652;BME280;34442;52.362;-1.302;2023-02-02T04:50:21;101105.66;;;7.12;100.00
48652;BME280;34442;52.362;-1.302;2023-02-02T04:52:46;101115.03;;;7.16;100.00
48652;BME280;34442;52.362;-1.302;2023-02-02T04:55:12;101117.00;;;7.14;100.00
48652;BME280;34442;52.362;-1.302;2023-02-02T04:57:37;101103.50;;;7.16;100.00
48652;BME280;34442;52.362;-1.302;2023-02-02T05:00:03;101101.28;;;7.11;100.00
48652;BME280;34442;52.362;-1.302;2023-02-02T05:02:29;101095.47;;;7.16;100.00
48652;BME280;34442;52.362;-1.302;2023-02-02T05:04:54;101096.13;;;7.18;100.00
48652;BME280;34442;52.362;-1.302;2023-02-02T05:07:20;101093.78;;;7.23;100.00
48652;BME280;34442;52.362;-1.302;2023-02-02T05:09:45;101100.47;;;7.27;100.00
48652;BME280;34442;52.362;-1.302;2023-02-02T05:12:10;101101.16;;;7.29;100.00
48652;BME280;34442;52.362;-1.302;2023-02-02T05:14:36;101106.84;;;7.34;100.00
48652;BME280;34442;52.362;-1.302;2023-02-02T05:17:01;101106.00;;;7.34;100.00
48652;BME280;34442;52.362;-1.302;2023-02-02T05:19:26;101112.19;;;7.34;100.00
48652;BME280;34442;52.362;-1.302;2023-02-02T05:21:52;101112.84;;;7.36;100.00
48652;BME280;34442;52.362;-1.302;2023-02-02T05:24:18;101111.16;;;7.35;100.00
48652;BME280;34442;52.362;-1.302;2023-02-02T05:26:44;101114.69;;;7.36;100.00
48652;BME280;34442;52.362;-1.302;2023-02-02T05:29:09;101114.16;;;7.40;100.00
48652;BME280;34442;52.362;-1.302;2023-02-02T05:31:35;101103.66;;;7.47;100.00
48652;BME280;34442;52.362;-1.302;2023-02-02T05:34:00;101096.78;;;7.44;100.00
48652;BME280;34442;52.362;-1.302;2023-02-02T05:36:26;101099.13;;;7.47;100.00
48652;BME280;34442;52.362;-1.302;2023-02-02T05:38:52;101089.25;;;7.48;100.00
48652;BME280;34442;52.362;-1.302;2023-02-02T05:41:17;101098.47;;;7.45;100.00
48652;BME280;34442;52.362;-1.302;2023-02-02T05:43:42;101100.13;;;7.46;100.00
48652;BME280;34442;52.362;-1.302;2023-02-02T05:46:08;101091.44;;;7.44;100.00
48652;BME280;34442;52.362;-1.302;2023-02-02T05:48:33;101102.63;;;7.40;100.00
48652;BME280;34442;52.362;-1.302;2023-02-02T05:51:14;101096.63;;;7.46;100.00
48652;BME280;34442;52.362;-1.302;2023-02-02T05:53:40;101093.63;;;7.33;100.00
48652;BME280;34442;52.362;-1.302;2023-02-02T05:56:09;101095.13;;;7.27;100.00
48652;BME280;34442;52.362;-1.302;2023-02-02T05:58:35;101104.16;;;7.26;100.00
48652;BME280;34442;52.362;-1.302;2023-02-02T06:01:01;101104.66;;;7.21;100.00
48652;BME280;34442;52.362;-1.302;2023-02-02T06:03:26;101102.50;;;7.17;100.00
48652;BME280;34442;52.362;-1.302;2023-02-02T06:05:52;101100.66;;;7.17;100.00
48652;BME280;34442;52.362;-1.302;2023-02-02T06:08:17;101103.16;;;7.19;100.00
48652;BME280;34442;52.362;-1.302;2023-02-02T06:10:42;101113.69;;;7.20;100.00
48652;BME280;34442;52.362;-1.302;2023-02-02T06:13:08;101116.19;;;7.22;100.00
48652;BME280;34442;52.362;-1.302;2023-02-02T06:15:34;101122.69;;;7.19;100.00
48652;BME280;34442;52.362;-1.302;2023-02-02T06:17:59;101111.50;;;7.24;100.00
48652;BME280;34442;52.362;-1.302;2023-02-02T06:20:25;101106.50;;;7.21;100.00
48652;BME280;34442;52.362;-1.302;2023-02-02T06:22:51;101109.84;;;7.23;100.00
48652;BME280;34442;52.362;-1.302;2023-02-02T06:25:16;101115.34;;;7.21;100.00
48652;BME280;34442;52.362;-1.302;2023-02-02T06:27:41;101114.84;;;7.26;100.00
48652;BME280;34442;52.362;-1.302;2023-02-02T06:30:10;101117.53;;;7.26;100.00
48652;BME280;34442;52.362;-1.302;2023-02-02T06:32:35;101120.19;;;7.26;100.00
48652;BME280;34442;52.362;-1.302;2023-02-02T06:35:00;101124.03;;;7.24;100.00
48652;BME280;34442;52.362;-1.302;2023-02-02T06:37:26;101122.88;;;7.26;100.00
48652;BME280;34442;52.362;-1.302;2023-02-02T06:39:51;101122.38;;;7.31;100.00
48652;BME280;34442;52.362;-1.302;2023-02-02T06:42:16;101129.88;;;7.27;100.00
48652;BME280;34442;52.362;-1.302;2023-02-02T06:44:42;101128.22;;;7.34;100.00
48652;BME280;34442;52.362;-1.302;2023-02-02T06:47:07;101130.06;;;7.34;100.00
48652;BME280;34442;52.362;-1.302;2023-02-02T06:49:33;101125.03;;;7.31;100.00
48652;BME280;34442;52.362;-1.302;2023-02-02T06:51:58;101120.38;;;7.33;100.00
48652;BME280;34442;52.362;-1.302;2023-02-02T06:54:23;101123.53;;;7.36;100.00
48652;BME280;34442;52.362;-1.302;2023-02-02T06:56:49;101125.38;;;7.36;100.00
48652;BME280;34442;52.362;-1.302;2023-02-02T06:59:14;101124.88;;;7.40;100.00
48652;BME280;34442;52.362;-1.302;2023-02-02T07:01:39;101128.22;;;7.42;100.00
48652;BME280;34442;52.362;-1.302;2023-02-02T07:04:05;101136.06;;;7.44;100.00
48652;BME280;34442;52.362;-1.302;2023-02-02T07:06:30;101131.56;;;7.44;100.00
48652;BME280;34442;52.362;-1.302;2023-02-02T07:08:56;101143.44;;;7.50;100.00
48652;BME280;34442;52.362;-1.302;2023-02-02T07:11:22;101143.78;;;7.55;100.00
48652;BME280;34442;52.362;-1.302;2023-02-02T07:13:48;101146.44;;;7.55;100.00
48652;BME280;34442;52.362;-1.302;2023-02-02T07:16:15;101143.25;;;7.60;100.00
48652;BME280;34442;52.362;-1.302;2023-02-02T07:18:41;101145.94;;;7.60;100.00
48652;BME280;34442;52.362;-1.302;2023-02-02T07:21:08;101150.78;;;7.64;100.00
48652;BME280;34442;52.362;-1.302;2023-02-02T07:23:39;101153.63;;;7.63;100.00
48652;BME280;34442;52.362;-1.302;2023-02-02T07:26:07;101143.94;;;7.62;100.00
48652;BME280;34442;52.362;-1.302;2023-02-02T07:28:33;101158.31;;;7.61;100.00
48652;BME280;34442;52.362;-1.302;2023-02-02T07:31:17;101153.97;;;7.68;100.00
48652;BME280;34442;52.362;-1.302;2023-02-02T07:33:43;101164.16;;;7.72;100.00
48652;BME280;34442;52.362;-1.302;2023-02-02T07:36:10;101153.28;;;7.90;100.00
48652;BME280;34442;52.362;-1.302;2023-02-02T07:38:36;101161.66;;;7.87;100.00
48652;BME280;34442;52.362;-1.302;2023-02-02T07:41:02;101161.78;;;7.86;100.00
48652;BME280;34442;52.362;-1.302;2023-02-02T07:43:28;101161.78;;;7.86;100.00
48652;BME280;34442;52.362;-1.302;2023-02-02T07:45:53;101158.97;;;7.87;100.00
48652;BME280;34442;52.362;-1.302;2023-02-02T07:48:19;101158.97;;;7.87;100.00
48652;BME280;34442;52.362;-1.302;2023-02-02T07:50:45;101156.94;;;7.89;100.00
48652;BME280;34442;52.362;-1.302;2023-02-02T07:53:10;101142.38;;;7.92;100.00
48652;BME280;34442;52.362;-1.302;2023-02-02T07:55:35;101147.22;;;7.96;100.00
48652;BME280;34442;52.362;-1.302;2023-02-02T07:58:01;101147.41;;;7.95;100.00
48652;BME280;34442;52.362;-1.302;2023-02-02T08:00:27;101155.78;;;7.84;100.00
48652;BME280;34442;52.362;-1.302;2023-02-02T08:02:53;101153.75;;;7.86;100.00
48652;BME280;34442;52.362;-1.302;2023-02-02T08:05:19;101159.63;;;7.81;100.00
48652;BME280;34442;52.362;-1.302;2023-02-02T08:07:46;101149.78;;;7.82;100.00
48652;BME280;34442;52.362;-1.302;2023-02-02T08:10:12;101157.63;;;7.75;100.00
48652;BME280;34442;52.362;-1.302;2023-02-02T08:12:38;101147.44;;;7.79;100.00
48652;BME280;34442;52.362;-1.302;2023-02-02T08:15:03;101162.31;;;7.81;100.00
48652;BME280;34442;52.362;-1.302;2023-02-02T08:17:29;101165.34;;;7.86;100.00
48652;BME280;34442;52.362;-1.302;2023-02-02T08:19:54;101167.16;;;7.86;100.00
48652;BME280;34442;52.362;-1.302;2023-02-02T08:22:19;101162.81;;;7.77;100.00
48652;BME280;34442;52.362;-1.302;2023-02-02T08:24:45;101177.53;;;7.64;100.00
48652;BME280;34442;52.362;-1.302;2023-02-02T08:27:11;101178.88;;;7.60;100.00
48652;BME280;34442;52.362;-1.302;2023-02-02T08:29:37;101176.38;;;7.59;100.00
48652;BME280;34442;52.362;-1.302;2023-02-02T08:32:04;101179.25;;;7.57;100.00
48652;BME280;34442;52.362;-1.302;2023-02-02T08:34:29;101172.03;;;7.58;100.00
48652;BME280;34442;52.362;-1.302;2023-02-02T08:36:55;101184.75;;;7.56;100.00
48652;BME280;34442;52.362;-1.302;2023-02-02T08:39:20;101180.91;;;7.58;100.00
48652;BME280;34442;52.362;-1.302;2023-02-02T08:41:47;101179.72;;;7.53;100.00
48652;BME280;34442;52.362;-1.302;2023-02-02T08:44:14;101181.03;;;7.40;100.00
48652;BME280;34442;52.362;-1.302;2023-02-02T08:46:40;101186.38;;;7.40;100.00
48652;BME280;34442;52.362;-1.302;2023-02-02T08:49:08;101185.06;;;7.36;100.00
48652;BME280;34442;52.362;-1.302;2023-02-02T08:51:34;101205.78;;;7.34;100.00
48652;BME280;34442;52.362;-1.302;2023-02-02T08:54:00;101207.47;;;7.35;100.00
48652;BME280;34442;52.362;-1.302;2023-02-02T08:56:26;101205.47;;;7.37;100.00
48652;BME280;34442;52.362;-1.302;2023-02-02T08:58:53;101211.78;;;7.36;100.00
48652;BME280;34442;52.362;-1.302;2023-02-02T09:01:25;101204.28;;;7.40;100.00
48652;BME280;34442;52.362;-1.302;2023-02-02T09:04:13;101210.66;;;7.39;100.00
48652;BME280;34442;52.362;-1.302;2023-02-02T09:06:40;101215.81;;;7.40;100.00
48652;BME280;34442;52.362;-1.302;2023-02-02T09:09:09;101211.66;;;7.46;100.00
48652;BME280;34442;52.362;-1.302;2023-02-02T09:11:35;101215.81;;;7.49;100.00
48652;BME280;34442;52.362;-1.302;2023-02-02T09:14:01;101218.88;;;7.54;100.00
48652;BME280;34442;52.362;-1.302;2023-02-02T09:16:27;101219.38;;;7.57;100.00
48652;BME280;34442;52.362;-1.302;2023-02-02T09:18:54;101214.50;;;7.61;100.00
48652;BME280;34442;52.362;-1.302;2023-02-02T09:21:20;101217.34;;;7.67;100.00
48652;BME280;34442;52.362;-1.302;2023-02-02T09:23:47;101216.69;;;7.74;100.00
48652;BME280;34442;52.362;-1.302;2023-02-02T09:26:25;101224.56;;;7.83;100.00
48652;BME280;34442;52.362;-1.302;2023-02-02T09:28:56;101224.69;;;7.90;100.00
48652;BME280;34442;52.362;-1.302;2023-02-02T09:31:23;101219.53;;;7.96;100.00
48652;BME280;34442;52.362;-1.302;2023-02-02T09:33:49;101223.53;;;8.01;100.00
48652;BME280;34442;52.362;-1.302;2023-02-02T09:36:19;101228.38;;;8.05;100.00
48652;BME280;34442;52.362;-1.302;2023-02-02T09:38:46;101216.31;;;8.09;100.00
48652;BME280;34442;52.362;-1.302;2023-02-02T09:50:19;101224.00;;;8.37;100.00
48652;BME280;34442;52.362;-1.302;2023-02-02T09:52:40;101231.19;;;8.36;100.00
48652;BME280;34442;52.362;-1.302;2023-02-02T09:55:26;101231.72;;;8.40;100.00
48652;BME280;34442;52.362;-1.302;2023-02-02T09:58:04;101223.16;;;8.44;100.00
48652;BME280;34442;52.362;-1.302;2023-02-02T10:00:37;101227.31;;;8.47;100.00
48652;BME280;34442;52.362;-1.302;2023-02-02T10:03:12;101216.44;;;8.49;100.00
48652;BME280;34442;52.362;-1.302;2023-02-02T10:05:54;101208.22;;;8.50;100.00
48652;BME280;34442;52.362;-1.302;2023-02-02T10:08:35;101217.25;;;8.57;100.00
48652;BME280;34442;52.362;-1.302;2023-02-02T10:11:46;101213.88;;;8.63;100.00
48652;BME280;34442;52.362;-1.302;2023-02-02T10:14:23;101210.00;;;8.66;100.00
48652;BME280;34442;52.362;-1.302;2023-02-02T10:16:53;101212.00;;;8.64;100.00
48652;BME280;34442;52.362;-1.302;2023-02-02T10:19:18;101218.34;;;8.71;100.00
48652;BME280;34442;52.362;-1.302;2023-02-02T10:21:50;101211.66;;;8.75;100.00
48652;BME280;34442;52.362;-1.302;2023-02-02T10:24:24;101219.66;;;8.83;100.00
48652;BME280;34442;52.362;-1.302;2023-02-02T10:26:55;101213.16;;;8.78;100.00
48652;BME280;34442;52.362;-1.302;2023-02-02T10:32:19;101225.50;;;8.87;100.00
48652;BME280;34442;52.362;-1.302;2023-02-02T10:35:09;101223.84;;;8.86;100.00
48652;BME280;34442;52.362;-1.302;2023-02-02T10:40:35;101230.19;;;8.93;100.00
48652;BME280;34442;52.362;-1.302;2023-02-02T10:45:49;101228.94;;;9.04;100.00
48652;BME280;34442;52.362;-1.302;2023-02-02T10:48:18;101228.28;;;9.02;100.00
48652;BME280;34442;52.362;-1.302;2023-02-02T10:50:48;101231.63;;;9.04;100.00
48652;BME280;34442;52.362;-1.302;2023-02-02T10:53:16;101227.88;;;9.13;100.00
48652;BME280;34442;52.362;-1.302;2023-02-02T10:55:47;101221.69;;;9.12;100.00
48652;BME280;34442;52.362;-1.302;2023-02-02T10:58:26;101224.94;;;9.31;100.00
48652;BME280;34442;52.362;-1.302;2023-02-02T11:00:57;101229.47;;;9.30;100.00
48652;BME280;34442;52.362;-1.302;2023-02-02T11:03:30;101227.38;;;9.40;100.00
48652;BME280;34442;52.362;-1.302;2023-02-02T11:06:01;101219.28;;;9.49;100.00
48652;BME280;34442;52.362;-1.302;2023-02-02T11:08:48;101230.69;;;9.51;100.00
48652;BME280;34442;52.362;-1.302;2023-02-02T11:11:28;101237.53;;;9.53;100.00
48652;BME280;34442;52.362;-1.302;2023-02-02T11:14:01;101237.38;;;9.55;100.00
48652;BME280;34442;52.362;-1.302;2023-02-02T11:16:29;101241.41;;;9.51;100.00
48652;BME280;34442;52.362;-1.302;2023-02-02T11:18:56;101237.41;;;9.47;100.00
48652;BME280;34442;52.362;-1.302;2023-02-02T11:21:33;101225.97;;;9.53;100.00
48652;BME280;34442;52.362;-1.302;2023-02-02T11:24:02;101216.25;;;9.52;100.00
48652;BME280;34442;52.362;-1.302;2023-02-02T11:29:29;101220.34;;;9.62;100.00
48652;BME280;34442;52.362;-1.302;2023-02-02T11:31:55;101212.28;;;9.62;100.00
48652;BME280;34442;52.362;-1.302;2023-02-02T11:34:24;101219.63;;;9.68;100.00
48652;BME280;34442;52.362;-1.302;2023-02-02T11:39:34;101205.72;;;9.88;100.00
48652;BME280;34442;52.362;-1.302;2023-02-02T11:44:43;101210.69;;;9.91;100.00
48652;BME280;34442;52.362;-1.302;2023-02-02T11:47:18;101206.47;;;9.97;100.00
48652;BME280;34442;52.362;-1.302;2023-02-02T11:49:44;101206.47;;;9.97;100.00
48652;BME280;34442;52.362;-1.302;2023-02-02T11:52:18;101204.72;;;10.04;100.00
48652;BME280;34442;52.362;-1.302;2023-02-02T11:54:48;101199.09;;;10.13;100.00
48652;BME280;34442;52.362;-1.302;2023-02-02T11:57:23;101200.47;;;10.24;100.00
48652;BME280;34442;52.362;-1.302;2023-02-02T12:02:33;101201.28;;;10.33;100.00
48652;BME280;34442;52.362;-1.302;2023-02-02T12:07:36;101198.59;;;10.33;100.00
48652;BME280;34442;52.362;-1.302;2023-02-02T12:12:39;101187.66;;;10.34;100.00
48652;BME280;34442;52.362;-1.302;2023-02-02T12:17:39;101190.50;;;10.48;100.00
48652;BME280;34442;52.362;-1.302;2023-02-02T12:23:01;101194.59;;;10.29;100.00
48652;BME280;34442;52.362;-1.302;2023-02-02T12:39:08;101182.91;;;10.36;100.00
48652;BME280;34442;52.362;-1.302;2023-02-02T12:54:39;101195.19;;;10.01;100.00
48652;BME280;34442;52.362;-1.302;2023-02-02T13:05:38;101186.34;;;10.30;100.00
48652;BME280;34442;52.362;-1.302;2023-02-02T13:08:15;101179.94;;;10.31;100.00
48652;BME280;34442;52.362;-1.302;2023-02-02T13:10:46;101178.19;;;10.38;100.00
48652;BME280;34442;52.362;-1.302;2023-02-02T13:13:25;101180.59;;;10.33;100.00
48652;BME280;34442;52.362;-1.302;2023-02-02T13:16:02;101173.44;;;10.40;100.00
48652;BME280;34442;52.362;-1.302;2023-02-02T13:18:34;101172.34;;;10.35;100.00
48652;BME280;34442;52.362;-1.302;2023-02-02T13:21:05;101164.28;;;10.35;100.00
48652;BME280;34442;52.362;-1.302;2023-02-02T13:23:35;101169.84;;;10.33;100.00
48652;BME280;34442;52.362;-1.302;2023-02-02T13:26:21;101166.59;;;10.38;100.00
48652;BME280;34442;52.362;-1.302;2023-02-02T13:31:24;101165.69;;;10.46;100.00
48652;BME280;34442;52.362;-1.302;2023-02-02T13:34:22;101162.22;;;10.52;100.00
48652;BME280;34442;52.362;-1.302;2023-02-02T13:36:51;101161.31;;;10.44;100.00
48652;BME280;34442;52.362;-1.302;2023-02-02T13:39:31;101156.22;;;10.50;100.00
48652;BME280;34442;52.362;-1.302;2023-02-02T13:41:59;101146.56;;;10.55;100.00
48652;BME280;34442;52.362;-1.302;2023-02-02T13:44:37;101154.44;;;10.57;100.00
48652;BME280;34442;52.362;-1.302;2023-02-02T13:47:08;101147.75;;;10.53;100.00
48652;BME280;34442;52.362;-1.302;2023-02-02T13:49:57;101139.53;;;10.54;100.00
48652;BME280;34442;52.362;-1.302;2023-02-02T13:55:32;101138.41;;;10.63;100.00
48652;BME280;34442;52.362;-1.302;2023-02-02T13:58:18;101144.03;;;10.68;100.00
48652;BME280;34442;52.362;-1.302;2023-02-02T14:00:52;101145.16;;;10.74;100.00
48652;BME280;34442;52.362;-1.302;2023-02-02T14:03:30;101134.47;;;10.81;100.00
48652;BME280;34442;52.362;-1.302;2023-02-02T14:06:03;101139.22;;;10.79;100.00
48652;BME280;34442;52.362;-1.302;2023-02-02T14:08:30;101149.50;;;10.75;100.00
48652;BME280;34442;52.362;-1.302;2023-02-02T14:11:00;101135.81;;;10.70;100.00
48652;BME280;34442;52.362;-1.302;2023-02-02T14:13:47;101140.31;;;10.69;100.00
48652;BME280;34442;52.362;-1.302;2023-02-02T14:18:58;101141.19;;;10.70;100.00
48652;BME280;34442;52.362;-1.302;2023-02-02T14:24:16;101139.94;;;10.73;100.00
48652;BME280;34442;52.362;-1.302;2023-02-02T14:26:49;101150.81;;;10.64;100.00
48652;BME280;34442;52.362;-1.302;2023-02-02T14:37:46;101146.66;;;10.62;100.00
48652;BME280;34442;52.362;-1.302;2023-02-02T14:40:18;101155.16;;;10.65;100.00
48652;BME280;34442;52.362;-1.302;2023-02-02T14:43:10;101160.94;;;10.62;100.00
48652;BME280;34442;52.362;-1.302;2023-02-02T14:51:13;101152.66;;;10.64;100.00
48652;BME280;34442;52.362;-1.302;2023-02-02T14:53:46;101147.66;;;10.61;100.00
48652;BME280;34442;52.362;-1.302;2023-02-02T14:56:14;101143.50;;;10.58;100.00
48652;BME280;34442;52.362;-1.302;2023-02-02T15:03:53;101145.84;;;10.47;100.00